KFXY/FXY METAR and TAF weather

Enter ICAO airport designator
Station Type Date Time Source
KFXY METAR 2021/01/27 12:55 UTC NOAA

KFXY 271255Z AUTO 04003KT 10SM BKN110 M12/M15 A3037 RMK AO2


Station Type Date Time Source
KFXY Decoded METAR 2021/01/27 12:55 UTC NOAA

Station name not available
Jan 27, 2021 - 07:55 AM EST / 2021.01.27 1255 UTC
Wind: from the NE (040 degrees) at 3 MPH (3 KT):0
Visibility: 10 mile(s):0
Sky conditions: mostly cloudy
Temperature: 10 F (-12 C)
Dew Point: 5 F (-15 C)
Relative Humidity: 78%
Pressure (altimeter): 30.37 in. Hg (1028 hPa)
ob: KFXY 271255Z AUTO 04003KT 10SM BKN110 M12/M15 A3037 RMK AO2
cycle: 13

Station Type Date Time Source
KFXY TAF UTC NOAA

Error!

Example: see airport list